Time;durP1;ratioP1;P1;durP2;ratioP2;P2;SDS_P1;SDS_P2;PMS_P1;PMS_P2;Temp;Humidity;BMP_temperature;BMP_pressure;BME280_temperature;BME280_humidity;BME280_pressure;Samples;Min_cycle;Max_cycle;Signal;HPM_P1;HPM_P2
2021/11/13 00:00:41;;;;;;;1.50;1.40;;;;;;;4.53;100.00;100355.69;5072545;28;20270;-74
2021/11/13 00:03:08;;;;;;;5.03;3.27;;;;;;;4.51;100.00;100357.84;5073646;28;20198;-74
2021/11/13 00:05:34;;;;;;;1.87;1.77;;;;;;;4.52;100.00;100342.44;5073609;28;20174;-74
2021/11/13 00:07:59;;;;;;;10.60;9.17;;;;;;;4.54;100.00;100346.47;5073480;28;20190;-75
2021/11/13 00:10:28;;;;;;;0.80;0.80;;;;;;;4.52;100.00;100350.56;5073692;28;20185;-74
2021/11/13 00:12:56;;;;;;;3.83;3.20;;;;;;;4.56;100.00;100340.78;5073736;28;20241;-74
2021/11/13 00:15:23;;;;;;;10.20;3.47;;;;;;;4.58;100.00;100354.84;5073340;28;20526;-75
2021/11/13 00:17:49;;;;;;;2.47;2.27;;;;;;;4.59;100.00;100343.75;5073636;28;20175;-74
2021/11/13 00:20:15;;;;;;;5.30;4.83;;;;;;;4.66;100.00;100340.78;5073310;28;20185;-74
2021/11/13 00:22:41;;;;;;;2.40;2.20;;;;;;;4.72;100.00;100337.78;5073363;28;20719;-74
2021/11/13 00:25:06;;;;;;;4.23;3.87;;;;;;;4.76;100.00;100329.91;5073156;28;20182;-74
2021/11/13 00:27:32;;;;;;;1.27;1.23;;;;;;;4.83;100.00;100335.03;5071971;28;20710;-75
2021/11/13 00:29:57;;;;;;;1.07;1.07;;;;;;;4.87;100.00;100347.75;5073356;28;20171;-74
2021/11/13 00:32:23;;;;;;;1.83;1.73;;;;;;;4.85;100.00;100341.78;5073273;28;20516;-74
2021/11/13 00:34:48;;;;;;;2.50;2.33;;;;;;;4.76;100.00;100344.25;5073004;28;20202;-74
2021/11/13 00:37:14;;;;;;;2.73;2.17;;;;;;;4.69;100.00;100343.75;5073169;28;20316;-74
2021/11/13 00:39:40;;;;;;;1.70;1.60;;;;;;;4.63;100.00;100362.94;5073210;28;20170;-74
2021/11/13 00:42:05;;;;;;;2.40;2.20;;;;;;;4.57;100.00;100372.16;5072747;28;20186;-74
2021/11/13 00:44:33;;;;;;;3.23;3.03;;;;;;;4.56;100.00;100360.53;5072964;28;20573;-74
2021/11/13 00:46:59;;;;;;;4.77;4.37;;;;;;;4.52;100.00;100358.66;5073005;28;20177;-74
2021/11/13 00:49:24;;;;;;;5.47;4.33;;;;;;;4.52;100.00;100358.66;5072953;28;20261;-74
2021/11/13 00:51:49;;;;;;;6.33;5.63;;;;;;;4.53;100.00;100368.41;5071588;28;20183;-75
2021/11/13 00:54:15;;;;;;;8.13;6.10;;;;;;;4.54;100.00;100364.59;5072625;28;20393;-75
2021/11/13 00:56:40;;;;;;;6.13;5.63;;;;;;;4.54;100.00;100368.13;5072872;28;20177;-75
2021/11/13 00:59:06;;;;;;;8.73;5.03;;;;;;;4.58;100.00;100365.66;5071143;28;20178;-75
2021/11/13 01:01:31;;;;;;;8.37;7.57;;;;;;;4.58;100.00;100354.84;5072737;28;20166;-75
2021/11/13 01:03:57;;;;;;;5.23;4.47;;;;;;;4.62;100.00;100364.84;5072521;28;20210;-75
2021/11/13 01:06:23;;;;;;;8.70;7.33;;;;;;;4.62;100.00;100342.38;5072423;28;20196;-74
2021/11/13 01:08:48;;;;;;;4.87;4.10;;;;;;;4.62;100.00;100347.81;5073009;28;20163;-74
2021/11/13 01:11:15;;;;;;;4.17;3.53;;;;;;;4.61;100.00;100343.47;5072602;28;20171;-75
2021/11/13 01:13:41;;;;;;;10.37;6.10;;;;;;;4.56;100.00;100344.31;5071026;28;20183;-74
2021/11/13 01:16:06;;;;;;;6.80;6.20;;;;;;;4.59;100.00;100341.03;5072266;28;20182;-75
2021/11/13 01:18:32;;;;;;;7.03;4.87;;;;;;;4.60;100.00;100329.13;5072420;28;20180;-75
2021/11/13 01:20:57;;;;;;;10.17;7.90;;;;;;;4.54;100.00;100324.84;5072497;28;20174;-74
2021/11/13 01:23:23;;;;;;;9.50;7.80;;;;;;;4.55;100.00;100336.47;5072430;28;20321;-75
2021/11/13 01:25:50;;;;;;;5.90;5.13;;;;;;;4.58;100.00;100334.00;5072475;28;20177;-74
2021/11/13 01:28:15;;;;;;;5.50;4.13;;;;;;;4.55;100.00;100345.41;5072245;28;20173;-74
2021/11/13 01:30:41;;;;;;;8.07;7.00;;;;;;;4.46;100.00;100339.72;5072513;28;20167;-75
2021/11/13 01:33:06;;;;;;;10.73;7.63;;;;;;;4.54;100.00;100353.78;5072040;28;20639;-75
2021/11/13 01:35:31;;;;;;;12.07;6.93;;;;;;;4.55;100.00;100347.28;5072066;28;20178;-74
2021/11/13 01:37:57;;;;;;;8.53;7.63;;;;;;;4.58;100.00;100352.16;5071988;28;20704;-74
2021/11/13 01:40:24;;;;;;;3.30;3.00;;;;;;;4.54;100.00;100351.09;5072116;28;20170;-75
2021/11/13 01:42:52;;;;;;;8.83;7.93;;;;;;;4.47;100.00;100344.03;5052178;28;20805;-75
2021/11/13 01:45:18;;;;;;;9.20;7.73;;;;;;;4.45;100.00;100345.41;5052469;28;20175;-75
2021/11/13 01:47:44;;;;;;;9.77;7.27;;;;;;;4.40;100.00;100332.72;5051910;28;20532;-75
2021/11/13 01:50:13;;;;;;;8.97;8.07;;;;;;;4.42;100.00;100329.72;5052148;28;20171;-75
2021/11/13 01:52:39;;;;;;;10.03;7.80;;;;;;;4.41;100.00;100333.50;5051953;28;20602;-75
2021/11/13 01:55:05;;;;;;;10.00;8.23;;;;;;;4.44;100.00;100322.16;5051912;28;20210;-75
2021/11/13 01:57:44;;;;;;;10.50;8.50;;;;;;;4.36;100.00;100311.91;5051758;28;20179;-74
2021/11/13 02:00:11;;;;;;;9.57;8.53;;;;;;;4.42;100.00;100319.72;5051580;28;20171;-75
2021/11/13 02:02:36;;;;;;;10.13;7.60;;;;;;;4.41;100.00;100320.00;5051774;28;20218;-75
2021/11/13 02:05:04;;;;;;;11.83;8.40;;;;;;;4.33;100.00;100317.84;5051514;28;20171;-75
2021/11/13 02:07:29;;;;;;;9.30;3.43;;;;;;;4.51;100.00;100330.81;5051510;28;20639;-75
2021/11/13 02:09:55;;;;;;;1.87;1.70;;;;;;;4.71;100.00;100319.91;5050949;28;20176;-74
2021/11/13 02:12:20;;;;;;;3.40;3.00;;;;;;;4.78;100.00;100319.63;5051406;28;20247;-75
2021/11/13 02:14:45;;;;;;;1.47;1.30;;;;;;;4.80;100.00;100319.38;5051376;28;20270;-74
2021/11/13 02:17:11;;;;;;;2.90;2.67;;;;;;;4.81;100.00;100308.25;5051655;28;20254;-74
2021/11/13 02:19:38;;;;;;;2.80;2.20;;;;;;;4.83;100.00;100314.19;5051263;28;20189;-74
2021/11/13 02:22:04;;;;;;;4.00;3.20;;;;;;;4.85;100.00;100314.72;5051304;28;20179;-75
2021/11/13 02:24:29;;;;;;;6.60;5.63;;;;;;;4.84;100.00;100302.28;5051104;28;20203;-75
2021/11/13 02:26:55;;;;;;;6.40;4.23;;;;;;;4.86;100.00;100312.84;5051136;28;20233;-74
2021/11/13 02:29:20;;;;;;;2.03;1.83;;;;;;;4.85;100.00;100308.50;5051113;28;20233;-75
2021/11/13 02:31:46;;;;;;;3.27;2.97;;;;;;;4.86;100.00;100302.00;5051119;28;20246;-74
2021/11/13 02:34:13;;;;;;;8.83;6.73;;;;;;;4.81;100.00;100297.44;5050610;28;20587;-75
2021/11/13 02:36:39;;;;;;;5.10;4.67;;;;;;;4.79;100.00;100296.91;5051098;28;20168;-74
2021/11/13 02:39:10;;;;;;;8.60;6.83;;;;;;;4.77;100.00;100291.75;5051012;28;20328;-74
2021/11/13 02:41:36;;;;;;;3.83;3.50;;;;;;;4.80;100.00;100292.28;5050981;28;20404;-74
2021/11/13 02:44:03;;;;;;;4.47;4.13;;;;;;;4.82;100.00;100282.81;5051082;28;20218;-75
2021/11/13 02:46:29;;;;;;;6.10;5.13;;;;;;;4.83;100.00;100270.09;5051109;28;20175;-75
2021/11/13 02:48:55;;;;;;;9.50;6.30;;;;;;;4.76;100.00;100273.88;5050988;28;20759;-75
2021/11/13 02:51:20;;;;;;;6.43;5.80;;;;;;;4.81;100.00;100272.25;5050865;28;20191;-74
2021/11/13 02:53:49;;;;;;;7.23;5.70;;;;;;;4.82;100.00;100257.66;5050725;28;20531;-75
2021/11/13 02:56:15;;;;;;;4.87;4.50;;;;;;;4.84;100.00;100258.97;5051619;28;20190;-75
2021/11/13 02:58:40;;;;;;;1.97;1.47;;;;;;;4.86;100.00;100272.22;5050959;28;20178;-75
2021/11/13 03:01:09;;;;;;;3.20;2.27;;;;;;;4.82;100.00;100290.94;5050784;28;20254;-75
2021/11/13 03:03:35;;;;;;;4.23;3.83;;;;;;;4.77;100.00;100290.94;5050605;28;20295;-74
2021/11/13 03:06:01;;;;;;;4.93;2.93;;;;;;;4.70;100.00;100275.00;5051013;28;20186;-75
2021/11/13 03:08:30;;;;;;;4.07;3.73;;;;;;;4.70;100.00;100275.00;5050636;28;20183;-75
2021/11/13 03:10:57;;;;;;;2.43;2.27;;;;;;;4.70;100.00;100293.13;5050796;28;20264;-74
2021/11/13 03:13:23;;;;;;;3.47;3.20;;;;;;;4.66;100.00;100301.00;5050765;28;20186;-74
2021/11/13 03:15:50;;;;;;;7.40;6.70;;;;;;;4.63;100.00;100304.25;5051191;28;20171;-75
2021/11/13 03:18:15;;;;;;;7.87;5.73;;;;;;;4.65;100.00;100299.38;5071003;28;20171;-74
2021/11/13 03:20:41;;;;;;;3.63;3.27;;;;;;;4.68;100.00;100308.84;5070799;28;20190;-74
2021/11/13 03:23:06;;;;;;;4.73;4.13;;;;;;;4.68;100.00;100298.00;5074776;28;20277;-75
2021/11/13 03:25:38;;;;;;;8.33;7.47;;;;;;;4.71;100.00;100282.03;5074554;28;20236;-74
2021/11/13 03:28:08;;;;;;;2.90;2.70;;;;;;;4.74;100.00;100276.06;5074631;28;20262;-75
2021/11/13 03:30:33;;;;;;;2.70;2.50;;;;;;;4.76;100.00;100287.41;5074493;28;20171;-75
2021/11/13 03:32:59;;;;;;;5.57;4.97;;;;;;;4.77;100.00;100282.81;5074444;28;20170;-74
2021/11/13 03:35:28;;;;;;;7.20;4.63;;;;;;;4.75;100.00;100276.88;5074525;28;20177;-74
2021/11/13 03:37:56;;;;;;;2.17;1.97;;;;;;;4.71;100.00;100276.63;5074652;28;20171;-74
2021/11/13 03:40:22;;;;;;;2.97;2.67;;;;;;;4.70;100.00;100279.59;5074435;28;20178;-75
2021/11/13 03:42:47;;;;;;;6.23;3.80;;;;;;;4.71;100.00;100270.41;5074775;28;20199;-74
2021/11/13 03:45:12;;;;;;;11.33;2.27;;;;;;;4.70;100.00;100276.91;5074261;28;20170;-74
2021/11/13 03:47:38;;;;;;;3.60;3.27;;;;;;;4.67;100.00;100267.44;5074710;28;20171;-74
2021/11/13 03:50:05;;;;;;;3.90;3.40;;;;;;;4.66;100.00;100267.72;5073176;28;20209;-74
2021/11/13 03:52:30;;;;;;;2.70;2.53;;;;;;;4.67;100.00;100263.94;5076216;28;20175;-74
2021/11/13 03:54:56;;;;;;;5.40;4.73;;;;;;;4.68;100.00;100260.94;5074747;28;20170;-74
2021/11/13 03:57:21;;;;;;;4.33;3.50;;;;;;;4.68;100.00;100260.94;5074599;28;20175;-74
2021/11/13 03:59:47;;;;;;;5.13;3.20;;;;;;;4.72;100.00;100256.59;5074268;28;20250;-74
2021/11/13 04:02:12;;;;;;;5.47;4.87;;;;;;;4.68;100.00;100260.94;5072953;28;20181;-74
2021/11/13 04:04:39;;;;;;;6.80;5.87;;;;;;;4.67;100.00;100267.44;5073995;28;20527;-75
2021/11/13 04:07:04;;;;;;;5.00;4.53;;;;;;;4.65;100.00;100258.00;5074043;28;20178;-75
2021/11/13 04:09:30;;;;;;;3.37;3.03;;;;;;;4.64;100.00;100262.59;5074011;28;20284;-74
2021/11/13 04:11:55;;;;;;;2.67;1.70;;;;;;;4.64;100.00;100273.41;5074097;28;20175;-75
2021/11/13 04:14:21;;;;;;;7.00;6.27;;;;;;;4.60;100.00;100276.94;5073545;28;20258;-74
2021/11/13 04:16:46;;;;;;;5.73;3.03;;;;;;;4.57;100.00;100267.47;5074006;28;20261;-75
2021/11/13 04:19:12;;;;;;;4.43;4.00;;;;;;;4.60;100.00;100266.91;5073816;28;20173;-74
2021/11/13 04:21:38;;;;;;;6.37;5.77;;;;;;;4.59;100.00;100265.28;5073800;28;20171;-74
2021/11/13 04:24:05;;;;;;;6.40;5.27;;;;;;;4.63;100.00;100246.59;5073336;28;20221;-74
2021/11/13 04:26:31;;;;;;;11.20;5.47;;;;;;;4.64;100.00;100270.72;5073863;28;20175;-74
2021/11/13 04:28:57;;;;;;;6.33;5.67;;;;;;;4.58;100.00;100279.09;5073524;28;20653;-75
2021/11/13 04:31:22;;;;;;;5.97;5.37;;;;;;;4.60;100.00;100293.97;5072215;28;20212;-75
2021/11/13 04:33:48;;;;;;;6.47;5.83;;;;;;;4.70;100.00;100288.53;5072626;28;20170;-75
2021/11/13 04:36:25;;;;;;;5.73;4.90;;;;;;;4.65;100.00;100276.94;5073590;28;20521;-75
2021/11/13 04:38:50;;;;;;;4.87;4.43;;;;;;;4.64;100.00;100278.81;5073984;28;20650;-74
2021/11/13 04:41:16;;;;;;;5.87;2.30;;;;;;;4.65;100.00;100285.84;5073295;28;20170;-74
2021/11/13 04:43:42;;;;;;;2.50;2.27;;;;;;;4.55;100.00;100285.06;5073078;28;20605;-74
2021/11/13 04:46:07;;;;;;;4.93;3.57;;;;;;;4.47;100.00;100275.59;5073575;28;20197;-74
2021/11/13 04:48:33;;;;;;;2.63;2.43;;;;;;;4.41;100.00;100274.81;5073200;28;20175;-75
2021/11/13 04:51:01;;;;;;;4.73;4.07;;;;;;;4.38;100.00;100282.69;5073217;28;20682;-74
2021/11/13 04:53:26;;;;;;;2.13;1.77;;;;;;;4.39;100.00;100278.91;5073092;28;20166;-74
2021/11/13 04:55:51;;;;;;;4.07;3.13;;;;;;;4.38;100.00;100288.91;5073058;28;20167;-74
2021/11/13 04:58:17;;;;;;;6.00;4.30;;;;;;;4.40;100.00;100291.31;5073346;28;20167;-75
2021/11/13 05:00:42;;;;;;;5.70;5.13;;;;;;;4.40;100.00;100294.03;5072888;28;20224;-75
2021/11/13 05:03:08;;;;;;;6.50;5.90;;;;;;;4.41;100.00;100306.47;5072933;28;20586;-75
2021/11/13 05:05:33;;;;;;;6.07;5.47;;;;;;;4.33;100.00;100313.22;5072661;28;20198;-74
2021/11/13 05:07:58;;;;;;;5.87;5.27;;;;;;;4.37;100.00;100318.94;5072812;28;20225;-75
2021/11/13 05:10:24;;;;;;;6.17;5.67;;;;;;;4.50;100.00;100307.53;5072428;28;20653;-75
2021/11/13 05:12:49;;;;;;;8.50;6.73;;;;;;;4.48;100.00;100304.28;5072698;28;20181;-75
2021/11/13 05:15:15;;;;;;;8.20;6.17;;;;;;;4.68;100.00;100293.41;5072514;28;20170;-75
2021/11/13 05:17:41;;;;;;;10.43;6.33;;;;;;;4.59;100.00;100305.88;5073332;28;20179;-75
2021/11/13 05:20:09;;;;;;;8.83;6.50;;;;;;;4.60;100.00;100318.31;5072433;28;20166;-75
2021/11/13 05:22:36;;;;;;;7.13;6.27;;;;;;;4.60;100.00;100321.03;5073009;28;20238;-75
2021/11/13 05:25:03;;;;;;;6.00;5.40;;;;;;;4.70;100.00;100326.41;5072482;28;20626;-75
2021/11/13 05:27:28;;;;;;;4.40;3.63;;;;;;;4.73;100.00;100323.16;5073164;28;20687;-75
2021/11/13 05:29:54;;;;;;;5.50;4.63;;;;;;;4.80;100.00;100316.66;5072450;28;20317;-75
2021/11/13 05:32:19;;;;;;;3.23;2.93;;;;;;;4.77;100.00;100318.00;5072901;28;20209;-75
2021/11/13 05:34:44;;;;;;;4.00;3.70;;;;;;;4.74;100.00;100313.13;5072292;28;20664;-75
2021/11/13 05:37:10;;;;;;;7.33;3.77;;;;;;;4.66;100.00;100298.28;5072353;28;20198;-75
2021/11/13 05:39:36;;;;;;;4.50;3.77;;;;;;;4.73;100.00;100312.31;5072655;28;20174;-74
2021/11/13 05:42:04;;;;;;;5.47;4.97;;;;;;;4.74;100.00;100324.78;5072732;28;20167;-75
2021/11/13 05:44:29;;;;;;;4.03;2.47;;;;;;;4.75;100.00;100333.69;5071505;28;20199;-75
2021/11/13 05:46:55;;;;;;;7.00;6.00;;;;;;;4.76;100.00;100330.72;5072801;28;20576;-74
2021/11/13 05:49:21;;;;;;;8.23;5.60;;;;;;;4.74;100.00;100330.19;5072444;28;20170;-74
2021/11/13 05:51:47;;;;;;;7.17;4.77;;;;;;;4.80;100.00;100343.72;5072649;28;20654;-75
2021/11/13 05:54:12;;;;;;;8.60;6.80;;;;;;;4.60;100.00;100339.97;5072796;28;20181;-75
2021/11/13 05:56:44;;;;;;;6.90;6.20;;;;;;;4.71;100.00;100341.56;5072911;28;20181;-74
2021/11/13 05:59:09;;;;;;;5.43;4.93;;;;;;;4.76;100.00;100338.84;5073321;28;20646;-75
2021/11/13 06:01:35;;;;;;;6.90;5.07;;;;;;;4.74;100.00;100330.19;5073637;28;20227;-75
2021/11/13 06:04:00;;;;;;;5.17;4.67;;;;;;;4.68;100.00;100320.47;5072363;28;20231;-75
2021/11/13 06:06:25;;;;;;;3.27;2.40;;;;;;;4.65;100.00;100320.22;5073566;28;20277;-74
2021/11/13 06:08:51;;;;;;;2.80;2.60;;;;;;;4.60;100.00;100306.69;5075005;28;20177;-74
2021/11/13 06:11:16;;;;;;;2.97;1.93;;;;;;;4.59;100.00;100303.16;5072898;28;20202;-74
2021/11/13 06:13:42;;;;;;;1.60;1.47;;;;;;;4.59;100.00;100305.06;5071854;28;20648;-74
2021/11/13 06:16:08;;;;;;;3.27;2.97;;;;;;;4.61;100.00;100303.69;5070224;28;20170;-74
2021/11/13 06:18:37;;;;;;;5.83;2.63;;;;;;;4.65;100.00;100298.56;5071666;28;20531;-75
2021/11/13 06:21:07;;;;;;;2.17;1.97;;;;;;;4.70;100.00;100301.25;5071092;28;20170;-74
2021/11/13 06:23:38;;;;;;;1.80;1.17;;;;;;;4.69;100.00;100296.94;5071018;28;20225;-74
2021/11/13 06:26:05;;;;;;;4.60;4.20;;;;;;;4.66;100.00;100301.00;5071459;28;20175;-75
2021/11/13 06:28:34;;;;;;;3.43;3.17;;;;;;;4.62;100.00;100302.63;5071122;28;20189;-74
2021/11/13 06:30:59;;;;;;;3.97;3.57;;;;;;;4.66;100.00;100314.53;5071014;28;20272;-75
2021/11/13 06:33:25;;;;;;;3.17;2.57;;;;;;;4.70;100.00;100306.66;5071351;28;20638;-74
2021/11/13 06:35:50;;;;;;;2.13;1.93;;;;;;;4.68;100.00;100312.34;5070972;28;20209;-74
2021/11/13 06:38:17;;;;;;;6.40;5.60;;;;;;;4.70;100.00;100329.13;5070698;28;20635;-74
2021/11/13 06:40:42;;;;;;;7.80;6.60;;;;;;;4.71;100.00;100333.44;5070750;28;20572;-74
2021/11/13 06:43:08;;;;;;;7.73;5.47;;;;;;;4.70;100.00;100333.72;5071699;28;20292;-75
2021/11/13 06:45:34;;;;;;;1.57;1.33;;;;;;;4.68;100.00;100331.28;5070833;28;20175;-74
2021/11/13 06:48:00;;;;;;;5.43;4.90;;;;;;;4.64;100.00;100335.66;5070786;28;20243;-74
2021/11/13 06:50:26;;;;;;;3.87;3.50;;;;;;;4.63;100.00;100335.88;5070999;28;20480;-75
2021/11/13 06:52:52;;;;;;;6.57;5.00;;;;;;;4.64;100.00;100341.06;5070873;28;20178;-75
2021/11/13 06:55:17;;;;;;;6.90;6.30;;;;;;;4.62;100.00;100347.81;5069518;28;20201;-75
2021/11/13 06:57:43;;;;;;;5.37;4.87;;;;;;;4.60;100.00;100353.50;5070411;28;20565;-74
2021/11/13 07:00:11;;;;;;;7.00;6.30;;;;;;;4.59;100.00;100342.94;5070750;28;20228;-75
2021/11/13 07:02:37;;;;;;;7.27;6.57;;;;;;;4.61;100.00;100360.53;5071023;28;20259;-75
2021/11/13 07:05:04;;;;;;;7.17;6.03;;;;;;;4.64;100.00;100365.41;5072042;28;20219;-75
2021/11/13 07:07:32;;;;;;;4.00;2.63;;;;;;;4.61;100.00;100367.81;5071615;28;20204;-75
2021/11/13 07:10:02;;;;;;;9.30;6.20;;;;;;;4.50;100.00;100361.66;5071563;28;20181;-74
2021/11/13 07:12:30;;;;;;;6.90;6.20;;;;;;;4.51;100.00;100368.69;5071113;28;20268;-75
2021/11/13 07:14:55;;;;;;;6.97;5.90;;;;;;;4.51;100.00;100363.25;5071030;28;20549;-75
2021/11/13 07:17:21;;;;;;;8.57;6.27;;;;;;;4.61;100.00;100355.09;5071123;28;20171;-75
2021/11/13 07:19:46;;;;;;;6.40;5.77;;;;;;;4.61;100.00;100368.63;5071017;28;20257;-75
2021/11/13 07:22:14;;;;;;;6.30;5.23;;;;;;;4.59;100.00;100370.00;5071514;28;20183;-75
2021/11/13 07:24:40;;;;;;;5.10;4.60;;;;;;;4.50;100.00;100374.34;5070889;28;20213;-76
2021/11/13 07:27:06;;;;;;;4.77;4.27;;;;;;;4.44;100.00;100387.06;5070573;28;20213;-76
2021/11/13 07:29:32;;;;;;;10.87;7.13;;;;;;;4.45;100.00;100385.97;5070223;28;20308;-76
2021/11/13 07:31:57;;;;;;;6.17;5.57;;;;;;;4.37;100.00;100381.13;5070598;28;20178;-79
2021/11/13 07:34:23;;;;;;;9.00;5.97;;;;;;;4.40;100.00;100380.59;5070205;28;20208;-76
2021/11/13 07:36:48;;;;;;;9.23;7.37;;;;;;;4.44;100.00;100381.66;5070849;28;20302;-76
2021/11/13 07:39:14;;;;;;;8.00;7.20;;;;;;;4.45;100.00;100375.97;5070164;28;20213;-76
2021/11/13 07:41:39;;;;;;;7.57;6.87;;;;;;;4.57;100.00;100393.81;5070456;28;20183;-76
2021/11/13 07:44:05;;;;;;;5.37;4.87;;;;;;;4.72;100.00;100400.00;5070123;28;20589;-77
2021/11/13 07:46:31;;;;;;;7.40;6.63;;;;;;;4.69;100.00;100403.28;5070351;28;20179;-76
2021/11/13 07:48:56;;;;;;;5.83;5.23;;;;;;;4.73;100.00;100406.22;5070235;28;20237;-77
2021/11/13 07:51:22;;;;;;;6.57;5.87;;;;;;;4.75;100.00;100402.16;5070309;28;20654;-77
2021/11/13 07:53:48;;;;;;;7.20;5.87;;;;;;;4.75;100.00;100412.19;5069887;28;20175;-76
2021/11/13 07:56:15;;;;;;;6.07;5.57;;;;;;;4.83;100.00;100406.22;5070136;28;20185;-76
2021/11/13 07:58:41;;;;;;;6.93;5.87;;;;;;;4.90;100.00;100408.63;5070133;28;20175;-77
2021/11/13 08:01:06;;;;;;;6.20;5.63;;;;;;;4.84;100.00;100399.72;5068702;28;20175;-77
2021/11/13 08:03:31;;;;;;;6.67;5.27;;;;;;;4.83;100.00;100400.00;5068740;28;20202;-76
2021/11/13 08:05:57;;;;;;;6.97;6.27;;;;;;;4.80;100.00;100397.84;5070068;28;20637;-76
2021/11/13 08:08:22;;;;;;;6.07;5.47;;;;;;;4.79;100.00;100399.75;5070982;28;20186;-75
2021/11/13 08:10:48;;;;;;;4.07;3.77;;;;;;;4.83;100.00;100395.41;5073817;28;20529;-75
2021/11/13 08:13:16;;;;;;;6.50;5.90;;;;;;;4.80;100.00;100405.97;5072336;28;20239;-74
2021/11/13 08:15:42;;;;;;;4.63;4.23;;;;;;;4.81;100.00;100391.34;5072004;28;20598;-75
2021/11/13 08:18:09;;;;;;;4.20;3.83;;;;;;;4.85;100.00;100405.94;5073904;28;20179;-75
2021/11/13 08:20:35;;;;;;;2.23;2.03;;;;;;;4.81;100.00;100397.56;5073397;28;20235;-75
2021/11/13 08:23:01;;;;;;;5.10;4.60;;;;;;;4.76;100.00;100400.25;5072453;28;20210;-75
2021/11/13 08:25:26;;;;;;;4.37;3.73;;;;;;;4.72;100.00;100402.72;5074031;28;20212;-75
2021/11/13 08:27:52;;;;;;;6.47;5.50;;;;;;;4.66;100.00;100393.00;5073875;28;20185;-76
2021/11/13 08:30:17;;;;;;;5.37;4.87;;;;;;;4.67;100.00;100401.94;5073796;28;20171;-79
2021/11/13 08:32:45;;;;;;;5.70;5.20;;;;;;;4.71;100.00;100409.22;5073773;28;20179;-76
2021/11/13 08:35:12;;;;;;;4.50;4.10;;;;;;;4.75;100.00;100413.00;5073731;28;20584;-76
2021/11/13 08:37:38;;;;;;;5.30;3.70;;;;;;;4.74;100.00;100407.84;5073652;28;20189;-76
2021/11/13 08:40:05;;;;;;;6.03;5.47;;;;;;;4.76;100.00;100406.50;5073674;28;20182;-77
2021/11/13 08:42:30;;;;;;;4.13;3.50;;;;;;;4.81;100.00;100413.00;5073853;28;20182;-76
2021/11/13 08:44:56;;;;;;;6.33;4.17;;;;;;;4.81;100.00;100418.41;5073383;28;20182;-77
2021/11/13 08:47:22;;;;;;;2.47;2.27;;;;;;;4.82;100.00;100420.03;5073269;28;20273;-77
2021/11/13 08:49:48;;;;;;;7.00;4.80;;;;;;;4.83;100.00;100410.81;5073047;28;20635;-75
2021/11/13 08:52:16;;;;;;;1.73;1.63;;;;;;;4.87;100.00;100411.88;5073398;28;20175;-74
2021/11/13 08:54:43;;;;;;;5.20;4.30;;;;;;;4.88;100.00;100408.09;5073313;28;20175;-75
2021/11/13 08:57:09;;;;;;;2.07;1.50;;;;;;;4.94;100.00;100415.13;5073280;28;20595;-75
2021/11/13 08:59:35;;;;;;;4.70;4.40;;;;;;;4.96;100.00;100411.06;5073230;28;20277;-75
2021/11/13 09:02:05;;;;;;;7.17;4.43;;;;;;;4.95;100.00;100412.16;5072829;28;20257;-76
2021/11/13 09:04:31;;;;;;;1.53;1.50;;;;;;;4.97;100.00;100414.59;5072941;28;20244;-75
2021/11/13 09:06:57;;;;;;;3.13;2.80;;;;;;;4.98;100.00;100417.00;5072919;28;20267;-76
2021/11/13 09:09:24;;;;;;;2.83;2.63;;;;;;;5.00;100.00;100411.31;5072872;28;20255;-76
2021/11/13 09:11:50;;;;;;;2.30;2.20;;;;;;;5.00;100.00;100411.31;5072883;28;20178;-76
2021/11/13 09:14:18;;;;;;;4.20;3.80;;;;;;;5.03;100.00;100422.41;5072365;28;20307;-76
2021/11/13 09:16:43;;;;;;;2.00;1.80;;;;;;;5.10;100.00;100405.06;5072799;28;20264;-77
2021/11/13 09:19:10;;;;;;;3.10;2.90;;;;;;;5.11;100.00;100421.03;5072635;28;20208;-76
2021/11/13 09:21:35;;;;;;;2.87;2.67;;;;;;;5.09;100.00;100409.69;5072540;28;20535;-76
2021/11/13 09:24:02;;;;;;;2.07;1.87;;;;;;;5.09;100.00;100409.69;5072367;28;20202;-76
2021/11/13 09:26:28;;;;;;;2.47;2.33;;;;;;;5.10;100.00;100407.78;5072370;28;20185;-77
2021/11/13 09:28:55;;;;;;;5.20;3.37;;;;;;;5.13;100.00;100391.78;5070176;28;20262;-75
2021/11/13 09:31:21;;;;;;;5.53;1.77;;;;;;;5.14;100.00;100396.09;5069685;28;20215;-77
2021/11/13 09:33:46;;;;;;;3.67;2.53;;;;;;;5.18;100.00;100394.47;5071958;28;20183;-77
2021/11/13 09:36:11;;;;;;;3.07;2.70;;;;;;;5.22;100.00;100411.00;5072163;28;20658;-76
2021/11/13 09:38:44;;;;;;;5.50;3.93;;;;;;;5.27;100.00;100400.94;5071989;28;20178;-76
2021/11/13 09:41:11;;;;;;;8.87;6.47;;;;;;;5.35;100.00;100408.50;5072118;28;20686;-76
2021/11/13 09:43:38;;;;;;;7.90;6.03;;;;;;;5.45;100.00;100414.94;5071578;28;20264;-76
2021/11/13 09:46:06;;;;;;;9.07;8.23;;;;;;;5.55;100.00;100417.63;5071727;28;20178;-75
2021/11/13 09:48:32;;;;;;;8.93;7.90;;;;;;;5.62;100.00;100420.81;5071823;28;20236;-78
2021/11/13 09:50:58;;;;;;;8.83;7.27;;;;;;;5.70;100.00;100425.66;5071569;28;20265;-77
2021/11/13 09:53:26;;;;;;;4.73;4.07;;;;;;;5.86;100.00;100424.50;5071629;28;20178;-75
2021/11/13 09:55:52;;;;;;;7.60;6.60;;;;;;;5.95;100.00;100424.75;5071043;28;20174;-82
2021/11/13 09:58:19;;;;;;;9.60;7.43;;;;;;;6.04;100.00;100431.19;5071475;28;20269;-75
2021/11/13 10:00:48;;;;;;;8.40;6.90;;;;;;;6.07;100.00;100429.78;5071534;28;20174;-75
2021/11/13 10:03:19;;;;;;;4.00;3.70;;;;;;;6.15;100.00;100438.16;5071471;28;20202;-75
2021/11/13 10:05:49;;;;;;;8.73;6.97;;;;;;;6.20;100.00;100446.25;5071615;28;20213;-75
2021/11/13 10:08:15;;;;;;;7.90;7.20;;;;;;;6.40;100.00;100444.50;5071289;28;20186;-75
2021/11/13 10:10:41;;;;;;;6.27;4.93;;;;;;;6.43;100.00;100436.59;5071211;28;20177;-75
2021/11/13 10:13:26;;;;;;;7.73;6.40;;;;;;;6.46;100.00;100444.16;5071373;28;20223;-75
2021/11/13 10:15:57;;;;;;;4.93;4.40;;;;;;;6.41;100.00;100435.25;5070672;28;20178;-75
2021/11/13 10:18:26;;;;;;;6.63;6.03;;;;;;;6.41;100.00;100449.63;5070003;28;20254;-75
2021/11/13 10:20:57;;;;;;;8.13;6.07;;;;;;;6.35;100.00;100441.81;5071026;28;20186;-75
2021/11/13 10:23:26;;;;;;;6.23;5.73;;;;;;;6.42;100.00;100445.84;5071091;28;20568;-75
2021/11/13 10:25:55;;;;;;;8.53;7.10;;;;;;;6.39;100.00;100443.69;5071058;28;20300;-75
2021/11/13 10:28:21;;;;;;;2.07;1.53;;;;;;;6.45;100.00;100449.88;5069708;28;20205;-75
2021/11/13 10:30:46;;;;;;;0.90;0.90;;;;;;;6.43;100.00;100443.94;5070545;28;20627;-74
2021/11/13 10:33:12;;;;;;;6.67;6.00;;;;;;;6.39;100.00;100443.69;5070980;28;20274;-75
2021/11/13 10:35:39;;;;;;;7.57;6.30;;;;;;;6.43;100.00;100446.63;5071092;28;20174;-75
2021/11/13 10:38:16;;;;;;;5.23;4.20;;;;;;;6.42;100.00;100445.84;5071006;28;20167;-74
2021/11/13 10:41:17;;;;;;;5.73;4.77;;;;;;;6.44;100.00;100442.84;5071129;28;20185;-74
2021/11/13 10:43:44;;;;;;;5.07;4.60;;;;;;;6.44;100.00;100443.63;4988818;28;20747;-75
2021/11/13 10:46:11;;;;;;;8.17;6.63;;;;;;;6.46;100.00;100448.78;5054923;28;20540;-75
2021/11/13 10:48:41;;;;;;;3.57;2.80;;;;;;;6.43;100.00;100447.44;5070851;28;20167;-74
2021/11/13 10:51:11;;;;;;;7.13;5.57;;;;;;;6.44;100.00;100442.84;5070875;28;20179;-75
2021/11/13 10:53:38;;;;;;;7.13;5.67;;;;;;;6.46;100.00;100436.03;5070673;28;20239;-75
2021/11/13 10:56:11;;;;;;;5.93;5.37;;;;;;;6.46;100.00;100440.63;5070474;28;20646;-75
2021/11/13 10:58:40;;;;;;;6.37;5.77;;;;;;;6.42;100.00;100423.31;5070750;28;20178;-75
2021/11/13 11:01:11;;;;;;;5.63;4.83;;;;;;;6.45;100.00;100441.72;5070790;28;20205;-75
2021/11/13 11:03:41;;;;;;;4.07;3.77;;;;;;;6.40;100.00;100442.59;5070502;28;20771;-75
2021/11/13 11:06:08;;;;;;;7.93;6.50;;;;;;;6.37;100.00;100434.22;5070588;28;20179;-75
2021/11/13 11:08:39;;;;;;;7.67;4.77;;;;;;;6.41;100.00;100432.56;5070551;28;20543;-75
2021/11/13 11:11:29;;;;;;;13.17;3.97;;;;;;;6.43;100.00;100436.59;5068908;28;20174;-74
2021/11/13 11:13:58;;;;;;;5.23;4.47;;;;;;;6.47;100.00;100442.25;5070260;28;20197;-75
2021/11/13 11:16:28;;;;;;;1.63;1.53;;;;;;;6.46;100.00;100441.44;5069976;28;20179;-75
2021/11/13 11:18:55;;;;;;;5.67;4.73;;;;;;;6.49;100.00;100450.91;5070333;28;20225;-75
2021/11/13 11:21:59;;;;;;;6.23;5.63;;;;;;;6.57;100.00;100459.28;5070530;28;20192;-75